sensor_id;sensor_type;location;lat;lon;timestamp;pressure;altitude;pressure_sealevel;temperature;humidity
21102;BME280;10709;49.006;12.100;2024-03-23T00:55:43;48879.25;;;-146.00;86.82
21102;BME280;10709;49.006;12.100;2024-03-23T00:58:09;48883.16;;;-146.00;87.04
21102;BME280;10709;49.006;12.100;2024-03-23T01:01:09;48891.00;;;-146.00;87.28
21102;BME280;10709;49.006;12.100;2024-03-23T01:03:36;48894.91;;;-146.00;87.33
21102;BME280;10709;49.006;12.100;2024-03-23T01:06:02;48891.00;;;-146.00;87.24
21102;BME280;10709;49.006;12.100;2024-03-23T01:08:29;48894.91;;;-146.00;87.60
21102;BME280;10709;49.006;12.100;2024-03-23T01:10:59;48910.59;;;-146.00;87.63
21102;BME280;10709;49.006;12.100;2024-03-23T01:13:27;48894.91;;;-146.00;87.60
21102;BME280;10709;49.006;12.100;2024-03-23T01:15:56;48918.44;;;-146.00;87.76
21102;BME280;10709;49.006;12.100;2024-03-23T01:18:23;48867.50;;;-146.00;87.62
21102;BME280;10709;49.006;12.100;2024-03-23T01:20:52;48910.59;;;-146.00;87.96
21102;BME280;10709;49.006;12.100;2024-03-23T07:50:02;48992.88;;;-146.00;94.29
21102;BME280;10709;49.006;12.100;2024-03-23T08:24:44;48934.09;;;-146.00;89.93
21102;BME280;10709;49.006;12.100;2024-03-23T08:27:11;48928.22;;;-146.00;91.08
21102;BME280;10709;49.006;12.100;2024-03-23T08:29:38;48949.78;;;-146.00;92.42
21102;BME280;10709;49.006;12.100;2024-03-23T09:21:19;48957.59;;;-146.00;91.06
21102;BME280;10709;49.006;12.100;2024-03-23T09:26:27;48930.19;;;-146.00;88.75
21102;BME280;10709;49.006;12.100;2024-03-23T09:28:55;48939.97;;;-146.00;89.01
21102;BME280;10709;49.006;12.100;2024-03-23T09:31:22;48934.09;;;-146.00;87.96
21102;BME280;10709;49.006;12.100;2024-03-23T09:36:23;48926.25;;;-146.00;87.70
21102;BME280;10709;49.006;12.100;2024-03-23T09:38:50;48906.69;;;-146.00;86.25
21102;BME280;10709;49.006;12.100;2024-03-23T09:41:16;48904.72;;;-146.00;83.36
21102;BME280;10709;49.006;12.100;2024-03-23T09:46:27;48871.41;;;-146.00;80.53
21102;BME280;10709;49.006;12.100;2024-03-23T09:49:01;48859.66;;;-146.00;77.01
21102;BME280;10709;49.006;12.100;2024-03-23T09:51:30;48892.97;;;-146.00;76.86
21102;BME280;10709;49.006;12.100;2024-03-23T09:59:49;48847.91;;;-146.00;74.43
21102;BME280;10709;49.006;12.100;2024-03-23T10:04:57;48793.06;;;-146.00;68.17
21102;BME280;10709;49.006;12.100;2024-03-23T10:07:25;48796.97;;;-146.00;67.11
21102;BME280;10709;49.006;12.100;2024-03-23T10:09:54;48806.75;;;-146.00;65.63
21102;BME280;10709;49.006;12.100;2024-03-23T10:15:19;48800.88;;;-146.00;67.66
21102;BME280;10709;49.006;12.100;2024-03-23T10:17:48;48789.13;;;-146.00;68.88
21102;BME280;10709;49.006;12.100;2024-03-23T10:20:29;48777.38;;;-146.00;68.60
21102;BME280;10709;49.006;12.100;2024-03-23T10:23:01;48793.06;;;-146.00;70.02
21102;BME280;10709;49.006;12.100;2024-03-23T10:25:29;48781.31;;;-146.00;69.83
21102;BME280;10709;49.006;12.100;2024-03-23T10:28:03;48796.97;;;-146.00;69.58
21102;BME280;10709;49.006;12.100;2024-03-23T10:30:46;48804.81;;;-146.00;69.47
21102;BME280;10709;49.006;12.100;2024-03-23T10:35:52;48793.06;;;-146.00;68.34
21102;BME280;10709;49.006;12.100;2024-03-23T10:38:26;48781.31;;;-146.00;68.30
21102;BME280;10709;49.006;12.100;2024-03-23T10:40:52;48783.25;;;-146.00;66.88
21102;BME280;10709;49.006;12.100;2024-03-23T10:43:22;48773.47;;;-146.00;65.51
21102;BME280;10709;49.006;12.100;2024-03-23T10:45:51;48757.78;;;-146.00;62.74
21102;BME280;10709;49.006;12.100;2024-03-23T10:48:17;48777.38;;;-146.00;61.45
21102;BME280;10709;49.006;12.100;2024-03-23T10:50:48;48746.03;;;-146.00;61.63
21102;BME280;10709;49.006;12.100;2024-03-23T10:56:26;48781.31;;;-146.00;57.04
21102;BME280;10709;49.006;12.100;2024-03-23T10:58:54;48769.53;;;-146.00;59.04
21102;BME280;10709;49.006;12.100;2024-03-23T11:01:20;48777.38;;;-146.00;58.88
21102;BME280;10709;49.006;12.100;2024-03-23T11:03:46;48773.47;;;-146.00;60.07
21102;BME280;10709;49.006;12.100;2024-03-23T11:06:36;48767.59;;;-146.00;59.38
21102;BME280;10709;49.006;12.100;2024-03-23T11:09:02;48753.88;;;-146.00;60.07
21102;BME280;10709;49.006;12.100;2024-03-23T11:11:27;48757.78;;;-146.00;61.72
21102;BME280;10709;49.006;12.100;2024-03-23T11:13:57;48751.91;;;-146.00;61.37
21102;BME280;10709;49.006;12.100;2024-03-23T11:16:24;48744.06;;;-146.00;61.86
21102;BME280;10709;49.006;12.100;2024-03-23T11:18:51;48753.88;;;-146.00;61.09
21102;BME280;10709;49.006;12.100;2024-03-23T11:21:51;48753.88;;;-146.00;60.52
21102;BME280;10709;49.006;12.100;2024-03-23T11:24:18;48751.91;;;-146.00;60.53
21102;BME280;10709;49.006;12.100;2024-03-23T11:26:44;48753.88;;;-146.00;61.85
21102;BME280;10709;49.006;12.100;2024-03-23T11:29:11;48753.88;;;-146.00;61.20
21102;BME280;10709;49.006;12.100;2024-03-23T11:31:48;48775.41;;;-146.00;60.15
21102;BME280;10709;49.006;12.100;2024-03-23T11:34:18;48773.47;;;-146.00;60.68
21102;BME280;10709;49.006;12.100;2024-03-23T11:36:45;48757.78;;;-146.00;59.44
21102;BME280;10709;49.006;12.100;2024-03-23T11:39:18;48742.13;;;-146.00;59.92
21102;BME280;10709;49.006;12.100;2024-03-23T11:41:52;48773.47;;;-146.00;61.23
21102;BME280;10709;49.006;12.100;2024-03-23T11:44:36;48744.06;;;-146.00;60.92
21102;BME280;10709;49.006;12.100;2024-03-23T11:47:08;48775.41;;;-146.00;59.88
21102;BME280;10709;49.006;12.100;2024-03-23T11:49:34;48757.78;;;-146.00;59.81
21102;BME280;10709;49.006;12.100;2024-03-23T11:52:06;48757.78;;;-146.00;57.88
21102;BME280;10709;49.006;12.100;2024-03-23T11:54:32;48761.72;;;-146.00;57.88
21102;BME280;10709;49.006;12.100;2024-03-23T11:56:59;48765.63;;;-146.00;55.80
21102;BME280;10709;49.006;12.100;2024-03-23T11:59:31;48738.19;;;-146.00;54.83
21102;BME280;10709;49.006;12.100;2024-03-23T12:01:57;48767.59;;;-146.00;55.01
21102;BME280;10709;49.006;12.100;2024-03-23T12:04:29;48746.03;;;-146.00;54.00
21102;BME280;10709;49.006;12.100;2024-03-23T12:07:16;48769.53;;;-146.00;53.79
21102;BME280;10709;49.006;12.100;2024-03-23T12:10:05;48763.66;;;-146.00;55.84
21102;BME280;10709;49.006;12.100;2024-03-23T12:12:34;48746.03;;;-146.00;56.77
21102;BME280;10709;49.006;12.100;2024-03-23T12:15:07;48746.03;;;-146.00;57.24
21102;BME280;10709;49.006;12.100;2024-03-23T12:17:34;48718.59;;;-146.00;56.15
21102;BME280;10709;49.006;12.100;2024-03-23T12:20:01;48736.25;;;-146.00;56.63
21102;BME280;10709;49.006;12.100;2024-03-23T12:22:27;48744.06;;;-146.00;56.75
21102;BME280;10709;49.006;12.100;2024-03-23T12:24:52;48734.28;;;-146.00;55.21
21102;BME280;10709;49.006;12.100;2024-03-23T12:27:18;48742.13;;;-146.00;55.77
21102;BME280;10709;49.006;12.100;2024-03-23T12:29:44;48738.19;;;-146.00;55.92
21102;BME280;10709;49.006;12.100;2024-03-23T12:32:14;48738.19;;;-146.00;56.87
21102;BME280;10709;49.006;12.100;2024-03-23T12:34:41;48751.91;;;-146.00;55.79
21102;BME280;10709;49.006;12.100;2024-03-23T12:37:08;48746.03;;;-146.00;55.45
21102;BME280;10709;49.006;12.100;2024-03-23T12:39:34;48710.78;;;-146.00;55.34
21102;BME280;10709;49.006;12.100;2024-03-23T12:42:01;48759.75;;;-146.00;54.28
21102;BME280;10709;49.006;12.100;2024-03-23T12:44:28;48728.41;;;-146.00;54.34
21102;BME280;10709;49.006;12.100;2024-03-23T12:46:53;48740.16;;;-146.00;54.43
21102;BME280;10709;49.006;12.100;2024-03-23T12:49:19;48732.31;;;-146.00;53.63
21102;BME280;10709;49.006;12.100;2024-03-23T12:51:52;48757.78;;;-146.00;53.87
21102;BME280;10709;49.006;12.100;2024-03-23T12:54:19;48746.03;;;-146.00;54.19
21102;BME280;10709;49.006;12.100;2024-03-23T12:56:45;48763.66;;;-146.00;52.62
21102;BME280;10709;49.006;12.100;2024-03-23T12:59:11;48744.06;;;-146.00;50.49
21102;BME280;10709;49.006;12.100;2024-03-23T13:01:36;48738.19;;;-146.00;49.94
21102;BME280;10709;49.006;12.100;2024-03-23T13:04:02;48742.13;;;-146.00;51.32
21102;BME280;10709;49.006;12.100;2024-03-23T13:06:27;48742.13;;;-146.00;50.46
21102;BME280;10709;49.006;12.100;2024-03-23T13:08:57;48746.03;;;-146.00;50.67
21102;BME280;10709;49.006;12.100;2024-03-23T13:11:22;48718.59;;;-146.00;50.67
21102;BME280;10709;49.006;12.100;2024-03-23T13:13:49;48738.19;;;-146.00;49.35
21102;BME280;10709;49.006;12.100;2024-03-23T13:16:14;48730.38;;;-146.00;50.22
21102;BME280;10709;49.006;12.100;2024-03-23T13:18:40;48773.47;;;-146.00;50.35
21102;BME280;10709;49.006;12.100;2024-03-23T13:21:05;48726.44;;;-146.00;49.65
21102;BME280;10709;49.006;12.100;2024-03-23T13:23:30;48785.22;;;-146.00;49.53
21102;BME280;10709;49.006;12.100;2024-03-23T13:25:58;48738.19;;;-146.00;49.99
21102;BME280;10709;49.006;12.100;2024-03-23T13:28:23;48746.03;;;-146.00;49.74
21102;BME280;10709;49.006;12.100;2024-03-23T13:30:56;48769.53;;;-146.00;49.11
21102;BME280;10709;49.006;12.100;2024-03-23T13:33:23;48753.88;;;-146.00;48.53
21102;BME280;10709;49.006;12.100;2024-03-23T13:35:52;48746.03;;;-146.00;48.12
21102;BME280;10709;49.006;12.100;2024-03-23T13:38:18;48757.78;;;-146.00;47.96
21102;BME280;10709;49.006;12.100;2024-03-23T13:40:55;48746.03;;;-146.00;47.74
21102;BME280;10709;49.006;12.100;2024-03-23T13:43:21;48769.53;;;-146.00;48.63
21102;BME280;10709;49.006;12.100;2024-03-23T13:45:48;48746.03;;;-146.00;48.85
21102;BME280;10709;49.006;12.100;2024-03-23T13:48:15;48734.28;;;-146.00;49.15
21102;BME280;10709;49.006;12.100;2024-03-23T13:50:41;48746.03;;;-146.00;49.24
21102;BME280;10709;49.006;12.100;2024-03-23T13:53:06;48742.13;;;-146.00;49.18
21102;BME280;10709;49.006;12.100;2024-03-23T13:55:33;48742.13;;;-146.00;51.00
21102;BME280;10709;49.006;12.100;2024-03-23T13:57:58;48761.72;;;-146.00;52.02
21102;BME280;10709;49.006;12.100;2024-03-23T14:00:24;48726.44;;;-146.00;52.80
21102;BME280;10709;49.006;12.100;2024-03-23T14:02:49;48726.44;;;-146.00;53.26
21102;BME280;10709;49.006;12.100;2024-03-23T14:05:15;48746.03;;;-146.00;52.24
21102;BME280;10709;49.006;12.100;2024-03-23T14:07:41;48722.53;;;-146.00;51.95
21102;BME280;10709;49.006;12.100;2024-03-23T14:10:07;48730.38;;;-146.00;51.59
21102;BME280;10709;49.006;12.100;2024-03-23T14:12:32;48730.38;;;-146.00;50.61
21102;BME280;10709;49.006;12.100;2024-03-23T14:14:58;48714.69;;;-146.00;49.71
21102;BME280;10709;49.006;12.100;2024-03-23T14:17:24;48738.19;;;-146.00;49.00
21102;BME280;10709;49.006;12.100;2024-03-23T14:19:51;48742.13;;;-146.00;48.65
21102;BME280;10709;49.006;12.100;2024-03-23T14:22:16;48742.13;;;-146.00;48.84
21102;BME280;10709;49.006;12.100;2024-03-23T14:24:45;48730.38;;;-146.00;48.86
21102;BME280;10709;49.006;12.100;2024-03-23T14:27:10;48759.75;;;-146.00;48.77
21102;BME280;10709;49.006;12.100;2024-03-23T14:29:36;48746.03;;;-146.00;48.68
21102;BME280;10709;49.006;12.100;2024-03-23T14:32:01;48751.91;;;-146.00;48.72
21102;BME280;10709;49.006;12.100;2024-03-23T14:34:27;48738.19;;;-146.00;48.56
21102;BME280;10709;49.006;12.100;2024-03-23T14:36:55;48738.19;;;-146.00;49.02
21102;BME280;10709;49.006;12.100;2024-03-23T14:39:24;48755.84;;;-146.00;49.31
21102;BME280;10709;49.006;12.100;2024-03-23T14:41:50;48718.59;;;-146.00;49.65
21102;BME280;10709;49.006;12.100;2024-03-23T14:44:16;48706.84;;;-146.00;49.72
21102;BME280;10709;49.006;12.100;2024-03-23T14:46:41;48714.69;;;-146.00;49.00
21102;BME280;10709;49.006;12.100;2024-03-23T14:49:08;48734.28;;;-146.00;49.26
21102;BME280;10709;49.006;12.100;2024-03-23T14:51:34;48716.66;;;-146.00;49.79
21102;BME280;10709;49.006;12.100;2024-03-23T14:53:59;48738.19;;;-146.00;49.76
21102;BME280;10709;49.006;12.100;2024-03-23T14:56:25;48781.31;;;-146.00;49.98
21102;BME280;10709;49.006;12.100;2024-03-23T14:58:53;48742.13;;;-146.00;50.18
21102;BME280;10709;49.006;12.100;2024-03-23T15:01:21;48730.38;;;-146.00;49.69
21102;BME280;10709;49.006;12.100;2024-03-23T15:03:46;48734.28;;;-146.00;49.28
21102;BME280;10709;49.006;12.100;2024-03-23T15:06:13;48738.19;;;-146.00;49.62
21102;BME280;10709;49.006;12.100;2024-03-23T15:08:38;48757.78;;;-146.00;50.00
21102;BME280;10709;49.006;12.100;2024-03-23T15:11:06;48714.69;;;-146.00;50.27
21102;BME280;10709;49.006;12.100;2024-03-23T15:13:35;48734.28;;;-146.00;49.73
21102;BME280;10709;49.006;12.100;2024-03-23T15:16:02;48736.25;;;-146.00;49.53
21102;BME280;10709;49.006;12.100;2024-03-23T15:18:31;48730.38;;;-146.00;50.07
21102;BME280;10709;49.006;12.100;2024-03-23T15:21:00;48746.03;;;-146.00;49.35
21102;BME280;10709;49.006;12.100;2024-03-23T15:23:28;48730.38;;;-146.00;50.14
21102;BME280;10709;49.006;12.100;2024-03-23T15:25:58;48738.19;;;-146.00;49.82
21102;BME280;10709;49.006;12.100;2024-03-23T15:28:24;48742.13;;;-146.00;50.52
21102;BME280;10709;49.006;12.100;2024-03-23T15:30:52;48726.44;;;-146.00;50.31
21102;BME280;10709;49.006;12.100;2024-03-23T15:33:19;48757.78;;;-146.00;50.45
21102;BME280;10709;49.006;12.100;2024-03-23T15:35:44;48736.25;;;-146.00;50.71
21102;BME280;10709;49.006;12.100;2024-03-23T15:38:10;48710.78;;;-146.00;50.58
21102;BME280;10709;49.006;12.100;2024-03-23T15:40:36;48734.28;;;-146.00;50.78
21102;BME280;10709;49.006;12.100;2024-03-23T15:43:01;48738.19;;;-146.00;50.79
21102;BME280;10709;49.006;12.100;2024-03-23T15:45:27;48746.03;;;-146.00;50.70
21102;BME280;10709;49.006;12.100;2024-03-23T15:47:52;48742.13;;;-146.00;51.14
21102;BME280;10709;49.006;12.100;2024-03-23T15:50:18;48734.28;;;-146.00;50.70
21102;BME280;10709;49.006;12.100;2024-03-23T15:52:43;48736.25;;;-146.00;50.61
21102;BME280;10709;49.006;12.100;2024-03-23T15:55:09;48730.38;;;-146.00;50.45
21102;BME280;10709;49.006;12.100;2024-03-23T15:57:36;48746.03;;;-146.00;50.27
21102;BME280;10709;49.006;12.100;2024-03-23T16:00:02;48722.53;;;-146.00;50.62
21102;BME280;10709;49.006;12.100;2024-03-23T16:02:28;48728.41;;;-146.00;49.97
21102;BME280;10709;49.006;12.100;2024-03-23T16:04:54;48742.13;;;-146.00;49.74
21102;BME280;10709;49.006;12.100;2024-03-23T16:07:20;48755.84;;;-146.00;49.70
21102;BME280;10709;49.006;12.100;2024-03-23T16:09:46;48714.69;;;-146.00;49.38
21102;BME280;10709;49.006;12.100;2024-03-23T16:12:12;48746.03;;;-146.00;48.72
21102;BME280;10709;49.006;12.100;2024-03-23T16:14:37;48746.03;;;-146.00;49.44
21102;BME280;10709;49.006;12.100;2024-03-23T16:17:03;48724.50;;;-146.00;49.38
21102;BME280;10709;49.006;12.100;2024-03-23T16:19:28;48761.72;;;-146.00;49.06
21102;BME280;10709;49.006;12.100;2024-03-23T16:21:54;48722.53;;;-146.00;48.01
21102;BME280;10709;49.006;12.100;2024-03-23T16:24:21;48738.19;;;-146.00;47.85
21102;BME280;10709;49.006;12.100;2024-03-23T16:26:46;48730.38;;;-146.00;48.28
21102;BME280;10709;49.006;12.100;2024-03-23T16:29:12;48732.31;;;-146.00;49.08
21102;BME280;10709;49.006;12.100;2024-03-23T16:31:37;48726.44;;;-146.00;48.45
21102;BME280;10709;49.006;12.100;2024-03-23T16:34:03;48738.19;;;-146.00;48.35
21102;BME280;10709;49.006;12.100;2024-03-23T16:36:28;48714.69;;;-146.00;47.81
21102;BME280;10709;49.006;12.100;2024-03-23T16:38:54;48722.53;;;-146.00;48.44
21102;BME280;10709;49.006;12.100;2024-03-23T16:41:19;48730.38;;;-146.00;50.73
21102;BME280;10709;49.006;12.100;2024-03-23T16:43:45;48714.69;;;-146.00;57.04
21102;BME280;10709;49.006;12.100;2024-03-23T16:46:12;48714.69;;;-146.00;61.30
21102;BME280;10709;49.006;12.100;2024-03-23T16:48:39;48720.56;;;-146.00;63.68
21102;BME280;10709;49.006;12.100;2024-03-23T16:51:06;48730.38;;;-146.00;65.30
21102;BME280;10709;49.006;12.100;2024-03-23T16:53:33;48710.78;;;-146.00;67.77
21102;BME280;10709;49.006;12.100;2024-03-23T16:56:00;48714.69;;;-146.00;70.86
21102;BME280;10709;49.006;12.100;2024-03-23T16:58:27;48714.69;;;-146.00;71.80
21102;BME280;10709;49.006;12.100;2024-03-23T17:00:53;48718.59;;;-146.00;72.17
21102;BME280;10709;49.006;12.100;2024-03-23T17:03:22;48710.78;;;-146.00;72.46
21102;BME280;10709;49.006;12.100;2024-03-23T17:05:47;48730.38;;;-146.00;72.35
21102;BME280;10709;49.006;12.100;2024-03-23T17:08:13;48722.53;;;-146.00;71.78
21102;BME280;10709;49.006;12.100;2024-03-23T17:10:42;48746.03;;;-146.00;72.06
21102;BME280;10709;49.006;12.100;2024-03-23T17:13:07;48732.31;;;-146.00;71.23
21102;BME280;10709;49.006;12.100;2024-03-23T17:15:33;48730.38;;;-146.00;71.05
21102;BME280;10709;49.006;12.100;2024-03-23T17:17:58;48722.53;;;-146.00;71.69
21102;BME280;10709;49.006;12.100;2024-03-23T17:20:24;48718.59;;;-146.00;70.64
21102;BME280;10709;49.006;12.100;2024-03-23T17:22:56;48728.41;;;-146.00;71.10
21102;BME280;10709;49.006;12.100;2024-03-23T17:25:22;48714.69;;;-146.00;70.13
21102;BME280;10709;49.006;12.100;2024-03-23T17:27:48;48706.84;;;-146.00;70.32
21102;BME280;10709;49.006;12.100;2024-03-23T17:30:14;48742.13;;;-146.00;70.41
21102;BME280;10709;49.006;12.100;2024-03-23T17:32:45;48718.59;;;-146.00;70.33
21102;BME280;10709;49.006;12.100;2024-03-23T17:35:11;48710.78;;;-146.00;70.61
21102;BME280;10709;49.006;12.100;2024-03-23T17:37:38;48738.19;;;-146.00;69.51
21102;BME280;10709;49.006;12.100;2024-03-23T17:40:04;48730.38;;;-146.00;69.63
21102;BME280;10709;49.006;12.100;2024-03-23T17:42:36;48734.28;;;-146.00;69.25
21102;BME280;10709;49.006;12.100;2024-03-23T17:45:03;48742.13;;;-146.00;68.81
21102;BME280;10709;49.006;12.100;2024-03-23T17:47:40;48730.38;;;-146.00;68.39
21102;BME280;10709;49.006;12.100;2024-03-23T17:50:06;48736.25;;;-146.00;67.75
21102;BME280;10709;49.006;12.100;2024-03-23T17:52:32;48708.81;;;-146.00;67.03
21102;BME280;10709;49.006;12.100;2024-03-23T17:54:58;48712.72;;;-146.00;67.17
21102;BME280;10709;49.006;12.100;2024-03-23T17:57:24;48728.41;;;-146.00;67.18
21102;BME280;10709;49.006;12.100;2024-03-23T17:59:50;48718.59;;;-146.00;66.67
21102;BME280;10709;49.006;12.100;2024-03-23T18:02:15;48699.03;;;-146.00;66.08
21102;BME280;10709;49.006;12.100;2024-03-23T18:04:41;48708.81;;;-146.00;66.58
21102;BME280;10709;49.006;12.100;2024-03-23T18:07:07;48736.25;;;-146.00;64.91
21102;BME280;10709;49.006;12.100;2024-03-23T18:09:33;48728.41;;;-146.00;65.11
21102;BME280;10709;49.006;12.100;2024-03-23T18:11:58;48726.44;;;-146.00;65.95
21102;BME280;10709;49.006;12.100;2024-03-23T18:14:24;48722.53;;;-146.00;65.28
21102;BME280;10709;49.006;12.100;2024-03-23T18:16:49;48702.94;;;-146.00;64.92
21102;BME280;10709;49.006;12.100;2024-03-23T18:19:16;48706.84;;;-146.00;64.84
21102;BME280;10709;49.006;12.100;2024-03-23T18:21:42;48726.44;;;-146.00;64.95
21102;BME280;10709;49.006;12.100;2024-03-23T18:24:08;48710.78;;;-146.00;64.88
21102;BME280;10709;49.006;12.100;2024-03-23T18:26:33;48691.19;;;-146.00;64.65
21102;BME280;10709;49.006;12.100;2024-03-23T18:28:59;48714.69;;;-146.00;65.12
21102;BME280;10709;49.006;12.100;2024-03-23T18:31:24;48710.78;;;-146.00;64.83
21102;BME280;10709;49.006;12.100;2024-03-23T18:33:50;48718.59;;;-146.00;65.00
21102;BME280;10709;49.006;12.100;2024-03-23T18:36:15;48718.59;;;-146.00;65.63
21102;BME280;10709;49.006;12.100;2024-03-23T18:38:41;48712.72;;;-146.00;66.12
21102;BME280;10709;49.006;12.100;2024-03-23T18:41:06;48706.84;;;-146.00;66.85
21102;BME280;10709;49.006;12.100;2024-03-23T18:43:33;48702.94;;;-146.00;67.22
21102;BME280;10709;49.006;12.100;2024-03-23T18:45:59;48695.09;;;-146.00;67.56
21102;BME280;10709;49.006;12.100;2024-03-23T18:48:24;48722.53;;;-146.00;67.59
21102;BME280;10709;49.006;12.100;2024-03-23T18:50:50;48712.72;;;-146.00;68.21
21102;BME280;10709;49.006;12.100;2024-03-23T18:53:16;48708.81;;;-146.00;68.08
21102;BME280;10709;49.006;12.100;2024-03-23T18:55:54;48695.09;;;-146.00;68.35
21102;BME280;10709;49.006;12.100;2024-03-23T18:58:19;48718.59;;;-146.00;68.92
21102;BME280;10709;49.006;12.100;2024-03-23T19:00:48;48708.81;;;-146.00;69.39
21102;BME280;10709;49.006;12.100;2024-03-23T19:03:19;48691.19;;;-146.00;68.83
21102;BME280;10709;49.006;12.100;2024-03-23T19:05:52;48691.19;;;-146.00;69.29
21102;BME280;10709;49.006;12.100;2024-03-23T19:08:17;48710.78;;;-146.00;69.50
21102;BME280;10709;49.006;12.100;2024-03-23T19:10:43;48714.69;;;-146.00;69.45
21102;BME280;10709;49.006;12.100;2024-03-23T19:13:08;48702.94;;;-146.00;69.52
21102;BME280;10709;49.006;12.100;2024-03-23T19:15:34;48695.09;;;-146.00;69.36
21102;BME280;10709;49.006;12.100;2024-03-23T19:18:00;48691.19;;;-146.00;69.82
21102;BME280;10709;49.006;12.100;2024-03-23T19:20:25;48687.28;;;-146.00;70.09
21102;BME280;10709;49.006;12.100;2024-03-23T19:22:51;48710.78;;;-146.00;69.60
21102;BME280;10709;49.006;12.100;2024-03-23T19:25:16;48708.81;;;-146.00;69.98
21102;BME280;10709;49.006;12.100;2024-03-23T19:27:42;48706.84;;;-146.00;69.59
21102;BME280;10709;49.006;12.100;2024-03-23T19:30:08;48712.72;;;-146.00;69.31
21102;BME280;10709;49.006;12.100;2024-03-23T19:32:36;48695.09;;;-146.00;69.67
21102;BME280;10709;49.006;12.100;2024-03-23T19:35:02;48718.59;;;-146.00;69.44
21102;BME280;10709;49.006;12.100;2024-03-23T19:37:27;48695.09;;;-146.00;69.58
21102;BME280;10709;49.006;12.100;2024-03-23T19:39:54;48712.72;;;-146.00;69.51
21102;BME280;10709;49.006;12.100;2024-03-23T19:42:21;48706.84;;;-146.00;69.25
21102;BME280;10709;49.006;12.100;2024-03-23T19:44:47;48734.28;;;-146.00;69.77
21102;BME280;10709;49.006;12.100;2024-03-23T19:47:13;48699.03;;;-146.00;69.28
21102;BME280;10709;49.006;12.100;2024-03-23T19:49:38;48700.97;;;-146.00;69.51
21102;BME280;10709;49.006;12.100;2024-03-23T19:52:04;48714.69;;;-146.00;69.52
21102;BME280;10709;49.006;12.100;2024-03-23T19:54:29;48708.81;;;-146.00;69.73
21102;BME280;10709;49.006;12.100;2024-03-23T19:56:55;48714.69;;;-146.00;69.62
21102;BME280;10709;49.006;12.100;2024-03-23T19:59:21;48699.03;;;-146.00;69.54
21102;BME280;10709;49.006;12.100;2024-03-23T20:01:46;48706.84;;;-146.00;69.42
21102;BME280;10709;49.006;12.100;2024-03-23T20:04:12;48699.03;;;-146.00;70.26
21102;BME280;10709;49.006;12.100;2024-03-23T20:06:38;48714.69;;;-146.00;70.26
21102;BME280;10709;49.006;12.100;2024-03-23T20:09:04;48702.94;;;-146.00;70.50
21102;BME280;10709;49.006;12.100;2024-03-23T20:11:30;48679.44;;;-146.00;70.25
21102;BME280;10709;49.006;12.100;2024-03-23T20:13:56;48704.91;;;-146.00;70.74
21102;BME280;10709;49.006;12.100;2024-03-23T20:16:21;48689.22;;;-146.00;71.12
21102;BME280;10709;49.006;12.100;2024-03-23T20:18:55;48720.56;;;-146.00;71.22
21102;BME280;10709;49.006;12.100;2024-03-23T20:21:21;48695.09;;;-146.00;71.31
21102;BME280;10709;49.006;12.100;2024-03-23T20:23:46;48695.09;;;-146.00;71.68
21102;BME280;10709;49.006;12.100;2024-03-23T20:26:12;48691.19;;;-146.00;73.16
21102;BME280;10709;49.006;12.100;2024-03-23T20:28:37;48710.78;;;-146.00;74.31
21102;BME280;10709;49.006;12.100;2024-03-23T20:31:03;48697.06;;;-146.00;75.87
21102;BME280;10709;49.006;12.100;2024-03-23T20:33:29;48699.03;;;-146.00;76.60
21102;BME280;10709;49.006;12.100;2024-03-23T20:35:55;48722.53;;;-146.00;76.99
21102;BME280;10709;49.006;12.100;2024-03-23T20:38:22;48722.53;;;-146.00;77.09
21102;BME280;10709;49.006;12.100;2024-03-23T20:40:51;48704.91;;;-146.00;78.85
21102;BME280;10709;49.006;12.100;2024-03-23T20:43:17;48700.97;;;-146.00;79.01
21102;BME280;10709;49.006;12.100;2024-03-23T20:45:43;48714.69;;;-146.00;78.80
21102;BME280;10709;49.006;12.100;2024-03-23T20:48:08;48716.66;;;-146.00;78.84
21102;BME280;10709;49.006;12.100;2024-03-23T20:50:34;48691.19;;;-146.00;78.77
21102;BME280;10709;49.006;12.100;2024-03-23T20:52:59;48722.53;;;-146.00;79.14
21102;BME280;10709;49.006;12.100;2024-03-23T20:55:26;48734.28;;;-146.00;79.09
21102;BME280;10709;49.006;12.100;2024-03-23T20:57:51;48714.69;;;-146.00;78.86
21102;BME280;10709;49.006;12.100;2024-03-23T21:00:20;48702.94;;;-146.00;78.75
21102;BME280;10709;49.006;12.100;2024-03-23T21:02:45;48700.97;;;-146.00;78.60
21102;BME280;10709;49.006;12.100;2024-03-23T21:05:11;48706.84;;;-146.00;78.55
21102;BME280;10709;49.006;12.100;2024-03-23T21:07:37;48702.94;;;-146.00;78.15
21102;BME280;10709;49.006;12.100;2024-03-23T21:10:03;48700.97;;;-146.00;77.97
21102;BME280;10709;49.006;12.100;2024-03-23T21:12:29;48691.19;;;-146.00;77.41
21102;BME280;10709;49.006;12.100;2024-03-23T21:14:54;48697.06;;;-146.00;77.70
21102;BME280;10709;49.006;12.100;2024-03-23T21:17:20;48699.03;;;-146.00;77.71
21102;BME280;10709;49.006;12.100;2024-03-23T21:19:49;48710.78;;;-146.00;77.88
21102;BME280;10709;49.006;12.100;2024-03-23T21:22:15;48710.78;;;-146.00;77.64
21102;BME280;10709;49.006;12.100;2024-03-23T21:24:41;48702.94;;;-146.00;78.09
21102;BME280;10709;49.006;12.100;2024-03-23T21:27:09;48699.03;;;-146.00;78.26
21102;BME280;10709;49.006;12.100;2024-03-23T21:29:34;48691.19;;;-146.00;79.14
21102;BME280;10709;49.006;12.100;2024-03-23T21:32:00;48712.72;;;-146.00;78.87
21102;BME280;10709;49.006;12.100;2024-03-23T21:34:25;48718.59;;;-146.00;79.06
21102;BME280;10709;49.006;12.100;2024-03-23T21:36:52;48693.16;;;-146.00;79.08
21102;BME280;10709;49.006;12.100;2024-03-23T21:39:18;48695.09;;;-146.00;79.19